createdAt,value
2022-08-04T00:00:17.412Z,23.44
2022-08-04T00:02:55.489Z,23.47
2022-08-04T00:05:39.138Z,23.48
2022-08-04T00:08:26.834Z,23.48
2022-08-04T00:11:01.352Z,23.48
2022-08-04T00:13:38.108Z,23.46
2022-08-04T00:16:38.417Z,23.46
2022-08-04T00:19:26.176Z,23.46
2022-08-04T00:22:05.777Z,23.45
2022-08-04T00:24:39.015Z,23.42
2022-08-04T00:27:11.796Z,23.43
2022-08-04T00:29:43.963Z,23.45
2022-08-04T00:32:34.073Z,23.42
2022-08-04T00:37:51.310Z,23.34
2022-08-04T00:40:53.545Z,23.37
2022-08-04T00:43:34.346Z,23.31
2022-08-04T00:47:02.544Z,23.28
2022-08-04T00:50:00.335Z,23.19
2022-08-04T00:52:46.910Z,23.19
2022-08-04T00:55:33.571Z,23.19
2022-08-04T00:58:42.104Z,23.18
2022-08-04T01:01:48.352Z,23.18
2022-08-04T01:04:30.271Z,23.16
2022-08-04T01:07:49.863Z,23.11
2022-08-04T01:10:58.690Z,23.11
2022-08-04T01:14:26.320Z,23.08
2022-08-04T01:17:13.179Z,23.11
2022-08-04T01:20:06.098Z,23.09
2022-08-04T01:22:52.202Z,23.08
2022-08-04T01:26:42.145Z,23.08
2022-08-04T01:29:15.066Z,23.07
2022-08-04T01:32:08.098Z,23.05
2022-08-04T01:34:47.534Z,23.04
2022-08-04T01:38:21.189Z,23.03
2022-08-04T01:40:58.038Z,23.02
2022-08-04T01:43:30.822Z,23.03
2022-08-04T01:46:05.364Z,23.02
2022-08-04T01:48:47.636Z,23.02
2022-08-04T01:51:22.588Z,22.99
2022-08-04T01:53:54.764Z,22.96
2022-08-04T01:56:29.381Z,22.94
2022-08-04T01:59:03.706Z,22.93
2022-08-04T02:01:37.457Z,22.94
2022-08-04T02:04:22.099Z,22.91
2022-08-04T02:07:38.928Z,22.86
2022-08-04T02:10:36.212Z,22.85
2022-08-04T02:13:34.439Z,22.84
2022-08-04T02:16:32.958Z,22.84
2022-08-04T02:19:29.063Z,22.83
2022-08-04T02:22:09.720Z,22.83
2022-08-04T02:24:47.528Z,22.77
2022-08-04T02:28:00.259Z,22.76
2022-08-04T02:30:36.122Z,22.75
2022-08-04T02:33:09.666Z,22.70
2022-08-04T02:35:43.303Z,22.65
2022-08-04T02:38:35.754Z,22.64
2022-08-04T02:41:11.119Z,22.64
2022-08-04T02:43:51.469Z,22.58
2022-08-04T02:46:25.294Z,22.56
2022-08-04T02:48:58.053Z,22.56
2022-08-04T02:51:34.927Z,22.57
2022-08-04T02:54:08.396Z,22.56
2022-08-04T02:56:41.439Z,22.54
2022-08-04T02:59:14.659Z,22.52
2022-08-04T03:01:58.100Z,22.51
2022-08-04T03:05:01.187Z,22.46
2022-08-04T03:08:08.049Z,22.44
2022-08-04T03:11:10.836Z,22.42
2022-08-04T03:14:15.088Z,22.39
2022-08-04T03:16:58.969Z,22.35
2022-08-04T03:19:42.487Z,22.37
2022-08-04T03:22:29.975Z,22.36
2022-08-04T03:25:56.999Z,22.36
2022-08-04T03:29:00.760Z,22.37
2022-08-04T03:32:05.099Z,22.34
2022-08-04T03:35:23.187Z,22.35
2022-08-04T03:38:24.360Z,22.38
2022-08-04T03:41:51.585Z,22.39
2022-08-04T03:45:23.148Z,22.39
2022-08-04T03:48:14.643Z,22.40
2022-08-04T03:51:36.027Z,22.41
2022-08-04T03:54:31.842Z,22.41
2022-08-04T03:58:02.518Z,22.40
2022-08-04T04:00:40.952Z,22.34
2022-08-04T04:03:59.011Z,22.35
2022-08-04T04:07:19.644Z,22.35
2022-08-04T04:10:28.748Z,22.37
2022-08-04T04:13:30.534Z,22.38
2022-08-04T04:16:14.431Z,22.39
2022-08-04T04:19:36.851Z,22.42
2022-08-04T04:22:29.837Z,22.44
2022-08-04T04:25:43.971Z,22.50
2022-08-04T04:28:44.626Z,22.57
2022-08-04T04:31:38.906Z,22.62
2022-08-04T04:34:46.211Z,22.59
2022-08-04T04:38:16.318Z,22.64
2022-08-04T04:41:29.584Z,22.68
2022-08-04T04:44:30.667Z,22.69
2022-08-04T04:47:16.248Z,22.78
2022-08-04T04:49:57.037Z,22.82
2022-08-04T04:52:55.256Z,22.88
2022-08-04T04:55:43.959Z,22.95
2022-08-04T04:58:22.904Z,23.03
2022-08-04T05:01:31.635Z,23.05
2022-08-04T05:04:59.556Z,23.12
2022-08-04T05:07:50.520Z,23.19
2022-08-04T05:10:57.083Z,23.24
2022-08-04T05:14:35.951Z,23.23
2022-08-04T05:16:38.188Z,23.25
2022-08-04T05:19:28.053Z,23.24
2022-08-04T05:22:14.685Z,23.27
2022-08-04T05:24:49.894Z,23.31
2022-08-04T05:27:30.023Z,23.35
2022-08-04T05:30:06.364Z,23.35
2022-08-04T05:32:47.197Z,23.39
2022-08-04T05:35:52.845Z,23.37
2022-08-04T05:38:29.735Z,23.43
2022-08-04T05:41:03.066Z,23.48
2022-08-04T05:43:37.684Z,23.62
2022-08-04T05:46:11.614Z,23.74
2022-08-04T05:48:45.490Z,23.80
2022-08-04T05:51:18.354Z,23.91
2022-08-04T05:53:52.087Z,23.99
2022-08-04T05:56:25.109Z,23.96
2022-08-04T05:58:57.553Z,24.02
2022-08-04T06:01:30.901Z,24.15
2022-08-04T06:04:06.869Z,24.21
2022-08-04T06:06:45.522Z,24.25
2022-08-04T06:09:17.544Z,24.23
2022-08-04T06:12:00.799Z,24.20
2022-08-04T06:14:42.601Z,24.25
2022-08-04T06:18:33.368Z,24.25
2022-08-04T06:20:22.788Z,24.31
2022-08-04T06:23:00.369Z,24.45
2022-08-04T06:25:38.679Z,24.56
2022-08-04T06:28:11.821Z,24.59
2022-08-04T06:30:47.923Z,24.72
2022-08-04T06:33:28.051Z,24.89
2022-08-04T06:36:02.037Z,24.90
2022-08-04T06:38:37.737Z,25.04
2022-08-04T06:41:09.846Z,25.22
2022-08-04T06:43:42.889Z,25.33
2022-08-04T06:46:16.458Z,25.35
2022-08-04T06:48:51.017Z,25.37
2022-08-04T06:51:35.568Z,25.35
2022-08-04T06:54:13.019Z,25.37
2022-08-04T06:56:45.787Z,25.32
2022-08-04T06:59:18.741Z,25.47
2022-08-04T07:01:52.105Z,25.58
2022-08-04T07:04:24.239Z,25.70
2022-08-04T07:06:56.275Z,25.77
2022-08-04T07:09:28.348Z,25.83
2022-08-04T07:12:05.570Z,25.91
2022-08-04T07:14:39.828Z,26.02
2022-08-04T07:17:12.097Z,26.08
2022-08-04T07:19:44.667Z,26.25
2022-08-04T07:22:25.575Z,26.44
2022-08-04T07:24:59.177Z,26.71
2022-08-04T07:27:47.779Z,26.90
2022-08-04T07:30:24.858Z,27.13
2022-08-04T07:32:57.475Z,27.28
2022-08-04T07:36:04.392Z,27.49
2022-08-04T07:38:27.476Z,27.66
2022-08-04T07:41:01.428Z,27.73
2022-08-04T07:43:33.630Z,27.99
2022-08-04T07:46:05.882Z,28.14
2022-08-04T07:48:38.913Z,28.34
2022-08-04T07:51:11.932Z,28.45
2022-08-04T07:53:55.224Z,28.36
2022-08-04T07:56:28.735Z,28.56
2022-08-04T07:59:01.601Z,28.67
2022-08-04T08:01:36.750Z,28.90
2022-08-04T08:04:10.879Z,29.21
2022-08-04T08:06:43.443Z,29.47
2022-08-04T08:09:19.400Z,29.80
2022-08-04T08:12:36.283Z,29.73
2022-08-04T08:14:46.735Z,30.00
2022-08-04T08:17:18.854Z,30.26
2022-08-04T08:19:51.308Z,30.34
2022-08-04T08:22:23.715Z,30.62
2022-08-04T08:24:55.898Z,30.99
2022-08-04T08:27:27.937Z,31.09
2022-08-04T08:30:00.214Z,31.33
2022-08-04T08:32:32.396Z,31.89
2022-08-04T08:35:04.820Z,32.42
2022-08-04T08:37:50.677Z,32.77
2022-08-04T08:40:40.410Z,33.05
2022-08-04T08:44:05.669Z,33.17
2022-08-04T08:47:27.425Z,32.99
2022-08-04T08:50:46.515Z,33.04
2022-08-04T08:54:15.899Z,33.63
2022-08-04T08:57:18.945Z,34.23
2022-08-04T09:00:16.852Z,34.76
2022-08-04T09:03:28.338Z,34.29
2022-08-04T09:06:19.267Z,34.19
2022-08-04T09:09:09.294Z,33.99
2022-08-04T09:12:28.069Z,33.62
2022-08-04T09:15:14.809Z,33.78
2022-08-04T09:18:01.209Z,34.27
2022-08-04T09:20:59.841Z,34.00
2022-08-04T09:24:00.556Z,33.68
2022-08-04T09:27:01.286Z,33.82
2022-08-04T09:30:06.386Z,34.08
2022-08-04T09:32:58.934Z,34.05
2022-08-04T09:35:47.164Z,34.84
2022-08-04T09:38:37.580Z,34.89
2022-08-04T09:41:48.221Z,34.95
2022-08-04T09:44:48.901Z,34.91
2022-08-04T09:47:48.137Z,35.17
2022-08-04T09:50:50.010Z,35.71
2022-08-04T09:53:31.383Z,35.99
2022-08-04T09:56:10.940Z,36.30
2022-08-04T09:59:08.110Z,36.28
2022-08-04T10:01:42.032Z,36.40
2022-08-04T10:04:15.587Z,36.59
2022-08-04T10:07:23.341Z,36.66
2022-08-04T10:10:32.515Z,36.37
2022-08-04T10:13:19.719Z,36.89
2022-08-04T10:15:57.654Z,36.88
2022-08-04T10:18:45.239Z,37.07
2022-08-04T10:21:50.601Z,37.03
2022-08-04T10:26:03.389Z,37.00
2022-08-04T10:28:10.045Z,36.76
2022-08-04T10:30:56.316Z,37.26
2022-08-04T10:33:53.868Z,37.38
2022-08-04T10:36:33.237Z,37.44
2022-08-04T10:39:42.291Z,37.83
2022-08-04T10:42:32.414Z,37.83
2022-08-04T10:45:15.265Z,38.14
2022-08-04T10:48:14.801Z,38.36
2022-08-04T10:51:22.925Z,38.02
2022-08-04T10:54:03.469Z,38.00
2022-08-04T10:56:56.785Z,38.50
2022-08-04T10:59:48.030Z,39.27
2022-08-04T11:02:27.441Z,40.00
2022-08-04T11:05:19.646Z,41.22
2022-08-04T11:08:00.109Z,41.68
2022-08-04T11:10:42.378Z,42.04
2022-08-04T11:13:22.233Z,42.60
2022-08-04T11:16:16.378Z,42.64
2022-08-04T11:19:45.231Z,42.68
2022-08-04T11:22:23.655Z,43.07
2022-08-04T11:25:15.250Z,43.46
2022-08-04T11:28:13.276Z,44.05
2022-08-04T11:31:08.235Z,44.69
2022-08-04T11:33:52.987Z,44.80
2022-08-04T11:36:58.479Z,45.46
2022-08-04T11:39:52.379Z,45.86
2022-08-04T11:42:29.366Z,46.09
2022-08-04T11:45:08.248Z,46.39
2022-08-04T11:48:00.986Z,45.70
2022-08-04T11:50:43.801Z,45.62
2022-08-04T11:53:19.898Z,45.34
2022-08-04T11:56:08.101Z,45.44
2022-08-04T11:58:41.993Z,45.23
2022-08-04T12:01:28.186Z,45.33
2022-08-04T12:04:14.368Z,46.33
2022-08-04T12:07:31.611Z,48.09
2022-08-04T12:10:41.529Z,48.53
2022-08-04T12:14:15.153Z,48.21
2022-08-04T12:17:02.113Z,47.72
2022-08-04T12:20:05.117Z,47.38
2022-08-04T12:22:51.118Z,47.44
2022-08-04T12:25:45.514Z,47.95
2022-08-04T12:29:09.158Z,47.55
2022-08-04T12:31:51.426Z,47.79
2022-08-04T12:34:35.452Z,48.30
2022-08-04T12:37:48.153Z,48.27
2022-08-04T12:40:30.152Z,47.31
2022-08-04T12:43:34.199Z,45.48
2022-08-04T12:46:12.270Z,46.86
2022-08-04T12:48:47.450Z,47.33
2022-08-04T12:51:31.179Z,46.79
2022-08-04T12:54:14.624Z,46.71
2022-08-04T12:56:47.291Z,47.83
2022-08-04T12:59:20.395Z,48.54
2022-08-04T13:02:09.628Z,49.01
2022-08-04T13:04:51.452Z,49.09
2022-08-04T13:07:27.020Z,47.76
2022-08-04T13:10:10.566Z,46.83
2022-08-04T13:12:53.364Z,46.62
2022-08-04T13:15:28.099Z,46.89
2022-08-04T13:18:15.129Z,47.14
2022-08-04T13:20:48.006Z,45.91
2022-08-04T13:23:21.918Z,44.74
2022-08-04T13:26:44.055Z,44.70
2022-08-04T13:28:53.070Z,45.47
2022-08-04T13:31:35.919Z,43.98
2022-08-04T13:34:19.223Z,42.12
2022-08-04T13:36:56.324Z,41.58
2022-08-04T13:39:29.469Z,41.28
2022-08-04T13:42:09.664Z,41.03
2022-08-04T13:44:48.088Z,40.55
2022-08-04T13:47:23.979Z,39.98
2022-08-04T13:50:27.612Z,39.10
2022-08-04T13:53:02.636Z,38.51
2022-08-04T13:55:36.926Z,38.08
2022-08-04T13:58:19.995Z,37.44
2022-08-04T14:01:06.280Z,36.72
2022-08-04T14:03:57.749Z,36.25
2022-08-04T14:06:34.969Z,35.74
2022-08-04T14:09:17.769Z,35.25
2022-08-04T14:12:06.427Z,35.05
2022-08-04T14:14:50.309Z,34.71
2022-08-04T14:17:30.412Z,34.44
2022-08-04T14:20:04.630Z,34.18
2022-08-04T14:22:37.198Z,33.88
2022-08-04T14:25:17.876Z,33.79
2022-08-04T14:27:55.512Z,33.14
2022-08-04T14:30:36.208Z,31.61
2022-08-04T14:34:03.624Z,29.50
2022-08-04T14:36:04.593Z,27.61
2022-08-04T14:38:58.483Z,26.36
2022-08-04T14:41:50.059Z,25.52
2022-08-04T14:44:22.047Z,24.91
2022-08-04T14:46:59.176Z,24.41
2022-08-04T14:49:31.152Z,24.02
2022-08-04T14:52:03.221Z,24.05
2022-08-04T14:54:36.099Z,24.67
2022-08-04T14:57:08.905Z,25.00
2022-08-04T15:00:02.495Z,25.12
2022-08-04T15:02:36.318Z,25.18
2022-08-04T15:06:02.198Z,25.09
2022-08-04T15:08:00.890Z,25.15
2022-08-04T15:10:33.121Z,25.31
2022-08-04T15:13:07.008Z,25.34
2022-08-04T15:15:43.383Z,25.38
2022-08-04T15:18:34.942Z,25.48
2022-08-04T15:21:07.999Z,25.60
2022-08-04T15:23:40.357Z,25.59
2022-08-04T15:26:17.610Z,25.64
2022-08-04T15:28:56.467Z,25.59
2022-08-04T15:32:06.307Z,25.56
2022-08-04T15:34:23.856Z,25.47
2022-08-04T15:37:06.945Z,25.29
2022-08-04T15:39:53.200Z,25.25
2022-08-04T15:43:15.418Z,25.16
2022-08-04T15:46:02.392Z,25.10
2022-08-04T15:48:52.251Z,25.12
2022-08-04T15:51:30.470Z,25.19
2022-08-04T15:54:23.427Z,25.27
2022-08-04T15:57:01.591Z,25.33
2022-08-04T16:00:11.309Z,25.11
2022-08-04T16:02:47.007Z,25.06
2022-08-04T16:05:22.505Z,25.12
2022-08-04T16:07:57.519Z,25.15
2022-08-04T16:10:35.250Z,25.16
2022-08-04T16:13:19.934Z,25.44
2022-08-04T16:15:56.502Z,25.34
2022-08-04T16:18:35.432Z,25.38
2022-08-04T16:21:23.345Z,25.47
2022-08-04T16:24:13.858Z,25.67
2022-08-04T16:26:56.890Z,25.59
2022-08-04T16:29:43.912Z,25.47
2022-08-04T16:32:26.270Z,25.39
2022-08-04T16:35:04.513Z,25.36
2022-08-04T16:37:38.679Z,25.37
2022-08-04T16:40:38.574Z,25.27
2022-08-04T16:43:18.255Z,25.43
2022-08-04T16:46:04.110Z,25.23
2022-08-04T16:48:36.982Z,25.23
2022-08-04T16:51:14.809Z,25.44
2022-08-04T16:54:03.874Z,25.40
2022-08-04T16:56:37.770Z,25.11
2022-08-04T16:59:12.534Z,25.14
2022-08-04T17:01:53.584Z,25.36
2022-08-04T17:04:34.753Z,25.45
2022-08-04T17:07:07.039Z,25.47
2022-08-04T17:09:50.889Z,25.32
2022-08-04T17:12:29.129Z,25.28
2022-08-04T17:15:01.106Z,25.39
2022-08-04T17:17:59.125Z,25.37
2022-08-04T17:20:28.117Z,25.39
2022-08-04T17:24:16.595Z,25.41
2022-08-04T17:26:39.920Z,25.40
2022-08-04T17:29:13.467Z,25.44
2022-08-04T17:31:53.330Z,25.37
2022-08-04T17:34:26.599Z,25.31
2022-08-04T17:37:24.293Z,25.33
2022-08-04T17:40:09.936Z,25.35
2022-08-04T17:42:45.323Z,25.23
2022-08-04T17:45:50.938Z,25.26
2022-08-04T17:48:24.863Z,25.26
2022-08-04T17:51:16.673Z,25.28
2022-08-04T17:54:02.233Z,25.24
2022-08-04T17:56:52.346Z,25.28
2022-08-04T17:59:55.421Z,25.29
2022-08-04T18:02:34.860Z,25.10
2022-08-04T18:05:12.182Z,25.21
2022-08-04T18:08:37.748Z,25.20
2022-08-04T18:10:52.483Z,25.28
2022-08-04T18:13:28.884Z,25.27
2022-08-04T18:16:14.474Z,25.24
2022-08-04T18:19:12.310Z,25.21
2022-08-04T18:21:59.763Z,25.13
2022-08-04T18:24:56.103Z,25.13
2022-08-04T18:27:30.660Z,25.16
2022-08-04T18:30:34.598Z,25.15
2022-08-04T18:33:10.593Z,25.10
2022-08-04T18:36:33.963Z,24.98
2022-08-04T18:38:54.471Z,24.94
2022-08-04T18:41:28.794Z,24.83
2022-08-04T18:44:28.205Z,24.83
2022-08-04T18:47:19.143Z,24.81
2022-08-04T18:50:58.802Z,24.67
2022-08-04T18:52:45.839Z,24.57
2022-08-04T18:55:56.167Z,24.42
2022-08-04T18:58:12.790Z,24.37
2022-08-04T19:00:48.314Z,24.37
2022-08-04T19:03:23.087Z,24.30
2022-08-04T19:05:55.465Z,24.35
2022-08-04T19:08:34.452Z,24.28
2022-08-04T19:11:38.280Z,24.21
2022-08-04T19:14:04.669Z,24.15
2022-08-04T19:16:40.745Z,24.10
2022-08-04T19:19:13.632Z,23.99
2022-08-04T19:21:59.957Z,23.94
2022-08-04T19:24:34.643Z,23.79
2022-08-04T19:27:08.708Z,23.64
2022-08-04T19:29:46.229Z,23.57
2022-08-04T19:32:18.366Z,23.46
2022-08-04T19:34:51.931Z,23.24
2022-08-04T19:37:58.559Z,23.06
2022-08-04T19:40:16.676Z,23.03
2022-08-04T19:43:14.998Z,22.94
2022-08-04T19:45:47.659Z,22.89
2022-08-04T19:48:20.275Z,22.85
2022-08-04T19:50:52.380Z,22.84
2022-08-04T19:56:17.324Z,22.78
2022-08-04T19:58:49.309Z,22.78
2022-08-04T20:01:33.410Z,22.70
2022-08-04T20:04:11.424Z,22.61
2022-08-04T20:06:44.678Z,22.58
2022-08-04T20:09:25.381Z,22.40
2022-08-04T20:11:59.039Z,22.44
2022-08-04T20:14:33.246Z,22.42
2022-08-04T20:17:10.367Z,22.35
2022-08-04T20:19:51.497Z,22.33
2022-08-04T20:22:51.710Z,22.36
2022-08-04T20:25:35.873Z,22.29
2022-08-04T20:28:09.518Z,22.15
2022-08-04T20:30:58.006Z,22.11
2022-08-04T20:33:30.094Z,22.08
2022-08-04T20:36:05.515Z,21.99
2022-08-04T20:38:39.464Z,21.98
2022-08-04T20:41:11.647Z,21.92
2022-08-04T20:43:49.748Z,21.92
2022-08-04T20:46:29.798Z,21.87
2022-08-04T20:49:03.457Z,21.88
2022-08-04T20:51:40.028Z,21.74
2022-08-04T20:54:16.080Z,21.77
2022-08-04T20:56:50.711Z,21.77
2022-08-04T20:59:23.276Z,21.61
2022-08-04T21:01:56.821Z,21.67
2022-08-04T21:04:31.457Z,21.67
2022-08-04T21:07:07.339Z,21.71
2022-08-04T21:09:50.732Z,21.65
2022-08-04T21:12:26.668Z,21.67
2022-08-04T21:15:14.005Z,21.69
2022-08-04T21:17:59.224Z,21.71
2022-08-04T21:20:42.382Z,21.67
2022-08-04T21:23:15.403Z,21.66
2022-08-04T21:25:55.377Z,21.66
2022-08-04T21:28:30.968Z,21.60
2022-08-04T21:31:21.655Z,21.54
2022-08-04T21:33:54.358Z,21.50
2022-08-04T21:36:27.434Z,21.44
2022-08-04T21:38:59.790Z,21.44
2022-08-04T21:41:44.587Z,21.44
2022-08-04T21:44:26.115Z,21.27
2022-08-04T21:46:59.684Z,21.30
2022-08-04T21:49:31.690Z,21.16
2022-08-04T21:52:07.478Z,21.15
2022-08-04T21:54:42.482Z,21.18
2022-08-04T21:57:16.916Z,21.19
2022-08-04T21:59:48.920Z,21.26
2022-08-04T22:02:21.815Z,21.29
2022-08-04T22:04:53.880Z,21.28
2022-08-04T22:07:26.198Z,21.11
2022-08-04T22:10:22.518Z,21.12
2022-08-04T22:13:07.247Z,21.15
2022-08-04T22:16:04.049Z,21.15
2022-08-04T22:18:31.721Z,21.17
2022-08-04T22:21:09.729Z,21.06
2022-08-04T22:23:45.376Z,21.04
2022-08-04T22:26:26.567Z,21.07
2022-08-04T22:28:59.143Z,21.08
2022-08-04T22:31:56.212Z,20.95
2022-08-04T22:34:24.186Z,21.04
2022-08-04T22:36:56.201Z,21.05
2022-08-04T22:39:28.172Z,21.04
2022-08-04T22:42:03.915Z,21.08
2022-08-04T22:44:36.596Z,21.11
2022-08-04T22:47:20.463Z,21.12
2022-08-04T22:50:13.391Z,21.09
2022-08-04T22:52:55.582Z,20.98
2022-08-04T22:56:07.674Z,20.91
2022-08-04T22:58:20.332Z,20.94
2022-08-04T23:00:54.003Z,20.98
2022-08-04T23:03:37.343Z,21.00
2022-08-04T23:06:11.916Z,20.99
2022-08-04T23:08:46.497Z,21.05
2022-08-04T23:11:20.936Z,21.09
2022-08-04T23:13:52.925Z,21.09
2022-08-04T23:16:25.294Z,21.10
2022-08-04T23:19:00.274Z,21.11
2022-08-04T23:21:47.228Z,21.09
2022-08-04T23:24:20.093Z,21.08
2022-08-04T23:26:52.085Z,21.04
2022-08-04T23:29:24.553Z,21.02
2022-08-04T23:32:00.673Z,21.16
2022-08-04T23:34:32.639Z,21.17
2022-08-04T23:37:04.715Z,21.18
2022-08-04T23:40:03.275Z,21.14
2022-08-04T23:42:28.629Z,21.13
2022-08-04T23:45:01.131Z,21.18
2022-08-04T23:48:18.709Z,21.18
2022-08-04T23:50:25.263Z,21.19
2022-08-04T23:52:57.418Z,21.14
2022-08-04T23:55:32.008Z,21.24
2022-08-04T23:58:17.046Z,21.28
